sensor_id;sensor_type;location;lat;lon;timestamp;pressure;altitude;pressure_sealevel;temperature;humidity
60719;BME280;46567;51.660;5.824;2023-05-12T00:01:59;130850.0;;;190.6;100.0
60719;BME280;46567;51.660;5.824;2023-05-12T00:06:59;130860.0;;;190.6;100.0
60719;BME280;46567;51.660;5.824;2023-05-12T00:12:00;130880.0;;;190.6;100.0
60719;BME280;46567;51.660;5.824;2023-05-12T00:16:59;130880.0;;;190.6;100.0
60719;BME280;46567;51.660;5.824;2023-05-12T00:21:59;130880.0;;;190.6;100.0
60719;BME280;46567;51.660;5.824;2023-05-12T00:26:59;130890.0;;;190.6;100.0
60719;BME280;46567;51.660;5.824;2023-05-12T00:31:59;130900.0;;;190.6;100.0
60719;BME280;46567;51.660;5.824;2023-05-12T00:36:59;130900.0;;;190.6;100.0
60719;BME280;46567;51.660;5.824;2023-05-12T00:41:59;130910.0;;;190.6;100.0
60719;BME280;46567;51.660;5.824;2023-05-12T00:46:59;130910.0;;;190.6;100.0
60719;BME280;46567;51.660;5.824;2023-05-12T00:52:01;130930.0;;;190.6;100.0
60719;BME280;46567;51.660;5.824;2023-05-12T00:57:00;130940.0;;;190.6;100.0
60719;BME280;46567;51.660;5.824;2023-05-12T01:01:59;130950.0;;;190.6;100.0
60719;BME280;46567;51.660;5.824;2023-05-12T01:07:03;130970.0;;;190.6;100.0
60719;BME280;46567;51.660;5.824;2023-05-12T01:11:59;130980.0;;;190.6;100.0
60719;BME280;46567;51.660;5.824;2023-05-12T01:17:02;130970.0;;;190.6;100.0
60719;BME280;46567;51.660;5.824;2023-05-12T01:22:00;130970.0;;;190.6;100.0
60719;BME280;46567;51.660;5.824;2023-05-12T01:27:00;130980.0;;;190.6;100.0
60719;BME280;46567;51.660;5.824;2023-05-12T01:32:00;130980.0;;;190.6;100.0
60719;BME280;46567;51.660;5.824;2023-05-12T01:36:59;130980.0;;;190.6;100.0
60719;BME280;46567;51.660;5.824;2023-05-12T01:41:59;130980.0;;;190.6;100.0
60719;BME280;46567;51.660;5.824;2023-05-12T01:46:59;130980.0;;;190.6;100.0
60719;BME280;46567;51.660;5.824;2023-05-12T01:51:59;130990.0;;;190.6;100.0
60719;BME280;46567;51.660;5.824;2023-05-12T01:56:59;130990.0;;;190.6;100.0
60719;BME280;46567;51.660;5.824;2023-05-12T02:01:59;131000.0;;;190.6;100.0
60719;BME280;46567;51.660;5.824;2023-05-12T02:06:59;131000.0;;;190.6;100.0
60719;BME280;46567;51.660;5.824;2023-05-12T02:11:59;131000.0;;;190.6;100.0
60719;BME280;46567;51.660;5.824;2023-05-12T02:16:59;131010.0;;;190.6;100.0
60719;BME280;46567;51.660;5.824;2023-05-12T02:21:59;130990.0;;;190.6;100.0
60719;BME280;46567;51.660;5.824;2023-05-12T02:26:59;130990.0;;;190.6;100.0
60719;BME280;46567;51.660;5.824;2023-05-12T02:31:59;130990.0;;;190.6;100.0
60719;BME280;46567;51.660;5.824;2023-05-12T02:36:59;130980.0;;;190.6;100.0
60719;BME280;46567;51.660;5.824;2023-05-12T02:41:59;130970.0;;;190.6;100.0
60719;BME280;46567;51.660;5.824;2023-05-12T02:46:59;130970.0;;;190.6;100.0
60719;BME280;46567;51.660;5.824;2023-05-12T02:51:59;130970.0;;;190.6;100.0
60719;BME280;46567;51.660;5.824;2023-05-12T02:57:03;130970.0;;;190.6;100.0
60719;BME280;46567;51.660;5.824;2023-05-12T03:01:59;130970.0;;;190.6;100.0
60719;BME280;46567;51.660;5.824;2023-05-12T03:06:59;130970.0;;;190.6;100.0
60719;BME280;46567;51.660;5.824;2023-05-12T03:11:59;130990.0;;;190.6;100.0
60719;BME280;46567;51.660;5.824;2023-05-12T03:16:59;130980.0;;;190.6;100.0
60719;BME280;46567;51.660;5.824;2023-05-12T03:22:00;130980.0;;;190.6;100.0
60719;BME280;46567;51.660;5.824;2023-05-12T03:27:00;130970.0;;;190.6;100.0
60719;BME280;46567;51.660;5.824;2023-05-12T03:31:59;130950.0;;;190.6;100.0
60719;BME280;46567;51.660;5.824;2023-05-12T03:41:59;130940.0;;;190.6;100.0
60719;BME280;46567;51.660;5.824;2023-05-12T03:46:59;130930.0;;;190.6;100.0
60719;BME280;46567;51.660;5.824;2023-05-12T03:51:59;130920.0;;;190.6;100.0
60719;BME280;46567;51.660;5.824;2023-05-12T03:56:59;130930.0;;;190.6;100.0
60719;BME280;46567;51.660;5.824;2023-05-12T04:01:59;130910.0;;;190.6;100.0
60719;BME280;46567;51.660;5.824;2023-05-12T04:06:59;130920.0;;;190.6;100.0
60719;BME280;46567;51.660;5.824;2023-05-12T04:11:59;130910.0;;;190.6;100.0
60719;BME280;46567;51.660;5.824;2023-05-12T04:17:00;130900.0;;;190.6;100.0
60719;BME280;46567;51.660;5.824;2023-05-12T04:22:00;130910.0;;;190.6;100.0
60719;BME280;46567;51.660;5.824;2023-05-12T04:26:59;130910.0;;;190.6;100.0
60719;BME280;46567;51.660;5.824;2023-05-12T04:31:59;130870.0;;;190.6;100.0
60719;BME280;46567;51.660;5.824;2023-05-12T04:37:00;130870.0;;;190.6;100.0
60719;BME280;46567;51.660;5.824;2023-05-12T04:42:00;130870.0;;;190.6;100.0
60719;BME280;46567;51.660;5.824;2023-05-12T04:46:59;130850.0;;;190.6;100.0
60719;BME280;46567;51.660;5.824;2023-05-12T04:51:59;130840.0;;;190.6;100.0
60719;BME280;46567;51.660;5.824;2023-05-12T04:56:59;130830.0;;;190.6;100.0
60719;BME280;46567;51.660;5.824;2023-05-12T05:01:59;130830.0;;;190.6;100.0
60719;BME280;46567;51.660;5.824;2023-05-12T05:07:00;130830.0;;;190.6;100.0
60719;BME280;46567;51.660;5.824;2023-05-12T05:12:00;130820.0;;;190.6;100.0
60719;BME280;46567;51.660;5.824;2023-05-12T05:17:00;130840.0;;;190.6;100.0
60719;BME280;46567;51.660;5.824;2023-05-12T05:21:59;130840.0;;;190.6;100.0
60719;BME280;46567;51.660;5.824;2023-05-12T05:26:59;130840.0;;;190.6;100.0
60719;BME280;46567;51.660;5.824;2023-05-12T05:31:59;130810.0;;;190.6;100.0
60719;BME280;46567;51.660;5.824;2023-05-12T05:36:59;130790.0;;;190.6;100.0
60719;BME280;46567;51.660;5.824;2023-05-12T05:42:00;130790.0;;;190.6;100.0
60719;BME280;46567;51.660;5.824;2023-05-12T05:47:00;130790.0;;;190.6;100.0
60719;BME280;46567;51.660;5.824;2023-05-12T05:52:00;130760.0;;;190.6;100.0
60719;BME280;46567;51.660;5.824;2023-05-12T05:57:00;130750.0;;;190.6;100.0
60719;BME280;46567;51.660;5.824;2023-05-12T06:02:00;130760.0;;;190.6;100.0
60719;BME280;46567;51.660;5.824;2023-05-12T06:07:00;130760.0;;;190.6;100.0
60719;BME280;46567;51.660;5.824;2023-05-12T06:12:00;130750.0;;;190.6;100.0
60719;BME280;46567;51.660;5.824;2023-05-12T06:17:00;130720.0;;;190.6;100.0
60719;BME280;46567;51.660;5.824;2023-05-12T06:21:59;130700.0;;;190.6;100.0
60719;BME280;46567;51.660;5.824;2023-05-12T06:27:00;130710.0;;;190.6;100.0
60719;BME280;46567;51.660;5.824;2023-05-12T06:32:00;130710.0;;;190.6;100.0
60719;BME280;46567;51.660;5.824;2023-05-12T06:36:59;130700.0;;;190.6;100.0
60719;BME280;46567;51.660;5.824;2023-05-12T06:42:00;130670.0;;;190.6;100.0
60719;BME280;46567;51.660;5.824;2023-05-12T06:47:00;130650.0;;;190.6;100.0
60719;BME280;46567;51.660;5.824;2023-05-12T06:52:00;130650.0;;;190.6;100.0
60719;BME280;46567;51.660;5.824;2023-05-12T06:57:00;130630.0;;;190.6;100.0
60719;BME280;46567;51.660;5.824;2023-05-12T07:02:00;130600.0;;;190.6;100.0
60719;BME280;46567;51.660;5.824;2023-05-12T07:07:00;130580.0;;;190.6;100.0
60719;BME280;46567;51.660;5.824;2023-05-12T07:11:59;130530.0;;;190.6;100.0
60719;BME280;46567;51.660;5.824;2023-05-12T07:16:59;130520.0;;;190.6;100.0
60719;BME280;46567;51.660;5.824;2023-05-12T07:22:00;130480.0;;;190.6;100.0
60719;BME280;46567;51.660;5.824;2023-05-12T07:26:59;130360.0;;;190.6;100.0
60719;BME280;46567;51.660;5.824;2023-05-12T07:32:00;130350.0;;;190.6;99.0
60719;BME280;46567;51.660;5.824;2023-05-12T07:37:00;130280.0;;;190.6;99.5
60719;BME280;46567;51.660;5.824;2023-05-12T07:42:00;130240.0;;;190.6;94.0
60719;BME280;46567;51.660;5.824;2023-05-12T07:46:59;130210.0;;;190.6;92.0
60719;BME280;46567;51.660;5.824;2023-05-12T07:52:00;130230.0;;;190.6;93.0
60719;BME280;46567;51.660;5.824;2023-05-12T07:56:59;130210.0;;;190.6;95.0
60719;BME280;46567;51.660;5.824;2023-05-12T08:02:00;130160.0;;;190.6;89.0
60719;BME280;46567;51.660;5.824;2023-05-12T08:07:00;130230.0;;;190.6;89.0
60719;BME280;46567;51.660;5.824;2023-05-12T08:12:00;130290.0;;;190.6;93.0
60719;BME280;46567;51.660;5.824;2023-05-12T08:17:00;130330.0;;;190.6;95.5
60719;BME280;46567;51.660;5.824;2023-05-12T08:22:00;130320.0;;;190.6;94.5
60719;BME280;46567;51.660;5.824;2023-05-12T08:27:00;130260.0;;;190.6;97.0
60719;BME280;46567;51.660;5.824;2023-05-12T08:32:01;130210.0;;;190.6;91.0
60719;BME280;46567;51.660;5.824;2023-05-12T08:37:00;130240.0;;;190.6;89.5
60719;BME280;46567;51.660;5.824;2023-05-12T08:42:03;130230.0;;;190.6;90.0
60719;BME280;46567;51.660;5.824;2023-05-12T08:47:00;130190.0;;;190.6;91.5
60719;BME280;46567;51.660;5.824;2023-05-12T08:52:00;130200.0;;;190.6;93.0
60719;BME280;46567;51.660;5.824;2023-05-12T08:57:00;130190.0;;;190.6;93.0
60719;BME280;46567;51.660;5.824;2023-05-12T09:02:00;130170.0;;;190.6;92.0
60719;BME280;46567;51.660;5.824;2023-05-12T09:07:00;130170.0;;;190.6;88.5
60719;BME280;46567;51.660;5.824;2023-05-12T09:12:08;130170.0;;;190.6;86.5
60719;BME280;46567;51.660;5.824;2023-05-12T09:17:02;130140.0;;;190.6;86.5
60719;BME280;46567;51.660;5.824;2023-05-12T09:22:00;130110.0;;;190.6;84.5
60719;BME280;46567;51.660;5.824;2023-05-12T09:27:00;130090.0;;;190.6;83.5
60719;BME280;46567;51.660;5.824;2023-05-12T09:32:01;130110.0;;;190.6;80.5
60719;BME280;46567;51.660;5.824;2023-05-12T09:37:04;130100.0;;;190.6;85.0
60719;BME280;46567;51.660;5.824;2023-05-12T09:42:00;130120.0;;;190.6;78.0
60719;BME280;46567;51.660;5.824;2023-05-12T09:47:05;130140.0;;;190.6;78.0
60719;BME280;46567;51.660;5.824;2023-05-12T09:52:00;130080.0;;;190.6;80.5
60719;BME280;46567;51.660;5.824;2023-05-12T09:57:01;130020.0;;;190.6;79.0
60719;BME280;46567;51.660;5.824;2023-05-12T10:02:03;130040.0;;;190.6;76.5
60719;BME280;46567;51.660;5.824;2023-05-12T10:07:00;130070.0;;;190.6;78.0
60719;BME280;46567;51.660;5.824;2023-05-12T10:12:01;130030.0;;;190.6;76.5
60719;BME280;46567;51.660;5.824;2023-05-12T10:17:00;130100.0;;;190.6;74.0
60719;BME280;46567;51.660;5.824;2023-05-12T10:22:00;130140.0;;;190.6;74.5
60719;BME280;46567;51.660;5.824;2023-05-12T10:27:00;130140.0;;;190.6;77.0
60719;BME280;46567;51.660;5.824;2023-05-12T10:32:00;130110.0;;;190.6;73.5
60719;BME280;46567;51.660;5.824;2023-05-12T10:37:03;130100.0;;;190.6;74.0
60719;BME280;46567;51.660;5.824;2023-05-12T10:42:04;130080.0;;;190.6;76.5
60719;BME280;46567;51.660;5.824;2023-05-12T10:47:00;130080.0;;;190.6;71.0
60719;BME280;46567;51.660;5.824;2023-05-12T10:52:00;130060.0;;;190.6;72.5
60719;BME280;46567;51.660;5.824;2023-05-12T10:57:00;130000.0;;;190.6;72.0
60719;BME280;46567;51.660;5.824;2023-05-12T11:02:01;129950.0;;;190.6;69.0
60719;BME280;46567;51.660;5.824;2023-05-12T11:07:00;129890.0;;;190.6;67.0
60719;BME280;46567;51.660;5.824;2023-05-12T11:12:00;129800.0;;;190.6;69.5
60719;BME280;46567;51.660;5.824;2023-05-12T11:17:00;129760.0;;;190.6;68.5
60719;BME280;46567;51.660;5.824;2023-05-12T11:22:03;129680.0;;;190.6;60.5
60719;BME280;46567;51.660;5.824;2023-05-12T11:27:00;129640.0;;;190.6;62.0
60719;BME280;46567;51.660;5.824;2023-05-12T11:32:00;129620.0;;;190.6;63.0
60719;BME280;46567;51.660;5.824;2023-05-12T11:37:00;129600.0;;;190.6;59.0
60719;BME280;46567;51.660;5.824;2023-05-12T11:42:01;129610.0;;;190.6;62.0
60719;BME280;46567;51.660;5.824;2023-05-12T11:47:01;129600.0;;;190.6;61.5
60719;BME280;46567;51.660;5.824;2023-05-12T11:52:01;129600.0;;;190.6;65.0
60719;BME280;46567;51.660;5.824;2023-05-12T11:57:00;129610.0;;;190.6;61.5
60719;BME280;46567;51.660;5.824;2023-05-12T12:02:01;129590.0;;;190.6;67.0
60719;BME280;46567;51.660;5.824;2023-05-12T12:07:00;129560.0;;;190.6;62.5
60719;BME280;46567;51.660;5.824;2023-05-12T12:12:01;129540.0;;;190.6;61.5
60719;BME280;46567;51.660;5.824;2023-05-12T12:17:00;129550.0;;;190.6;59.0
60719;BME280;46567;51.660;5.824;2023-05-12T12:22:00;129620.0;;;190.6;57.0
60719;BME280;46567;51.660;5.824;2023-05-12T12:27:00;129640.0;;;190.6;61.0
60719;BME280;46567;51.660;5.824;2023-05-12T12:32:00;129630.0;;;190.6;60.5
60719;BME280;46567;51.660;5.824;2023-05-12T12:37:00;129610.0;;;190.6;60.0
60719;BME280;46567;51.660;5.824;2023-05-12T12:42:00;129610.0;;;190.6;58.5
60719;BME280;46567;51.660;5.824;2023-05-12T12:47:00;129560.0;;;190.6;59.5
60719;BME280;46567;51.660;5.824;2023-05-12T12:52:00;129520.0;;;190.6;62.0
60719;BME280;46567;51.660;5.824;2023-05-12T12:57:00;129490.0;;;190.6;60.0
60719;BME280;46567;51.660;5.824;2023-05-12T13:02:00;129520.0;;;190.6;58.5
60719;BME280;46567;51.660;5.824;2023-05-12T13:07:00;129510.0;;;190.6;59.5
60719;BME280;46567;51.660;5.824;2023-05-12T13:12:00;129490.0;;;190.6;58.5
60719;BME280;46567;51.660;5.824;2023-05-12T13:17:00;129500.0;;;190.6;56.0
60719;BME280;46567;51.660;5.824;2023-05-12T13:22:03;129500.0;;;190.6;56.0
60719;BME280;46567;51.660;5.824;2023-05-12T13:27:00;129420.0;;;190.6;55.0
60719;BME280;46567;51.660;5.824;2023-05-12T13:32:00;129370.0;;;190.6;52.5
60719;BME280;46567;51.660;5.824;2023-05-12T13:37:00;129410.0;;;190.6;54.0
60719;BME280;46567;51.660;5.824;2023-05-12T13:42:00;129400.0;;;190.6;51.0
60719;BME280;46567;51.660;5.824;2023-05-12T13:47:00;129410.0;;;190.6;50.5
60719;BME280;46567;51.660;5.824;2023-05-12T13:52:00;129440.0;;;190.6;52.5
60719;BME280;46567;51.660;5.824;2023-05-12T13:57:00;129420.0;;;190.6;51.0
60719;BME280;46567;51.660;5.824;2023-05-12T14:02:00;129450.0;;;190.6;51.5
60719;BME280;46567;51.660;5.824;2023-05-12T14:07:00;129410.0;;;190.6;51.0
60719;BME280;46567;51.660;5.824;2023-05-12T14:12:00;129340.0;;;190.6;51.5
60719;BME280;46567;51.660;5.824;2023-05-12T14:17:00;129280.0;;;190.6;51.0
60719;BME280;46567;51.660;5.824;2023-05-12T14:22:00;129170.0;;;190.6;50.0
60719;BME280;46567;51.660;5.824;2023-05-12T14:27:00;129160.0;;;190.6;46.5
60719;BME280;46567;51.660;5.824;2023-05-12T14:32:00;129200.0;;;190.6;48.5
60719;BME280;46567;51.660;5.824;2023-05-12T14:37:00;129120.0;;;190.6;50.0
60719;BME280;46567;51.660;5.824;2023-05-12T14:42:00;129070.0;;;190.6;47.5
60719;BME280;46567;51.660;5.824;2023-05-12T14:47:00;129030.0;;;190.6;45.5
60719;BME280;46567;51.660;5.824;2023-05-12T14:52:00;128950.0;;;190.6;48.0
60719;BME280;46567;51.660;5.824;2023-05-12T14:57:00;128900.0;;;190.6;44.5
60719;BME280;46567;51.660;5.824;2023-05-12T15:02:00;128880.0;;;190.6;46.0
60719;BME280;46567;51.660;5.824;2023-05-12T15:07:00;128900.0;;;190.6;42.5
60719;BME280;46567;51.660;5.824;2023-05-12T15:12:00;128900.0;;;190.6;43.5
60719;BME280;46567;51.660;5.824;2023-05-12T15:17:00;128830.0;;;190.6;45.5
60719;BME280;46567;51.660;5.824;2023-05-12T15:22:00;128750.0;;;190.6;43.0
60719;BME280;46567;51.660;5.824;2023-05-12T15:27:00;128710.0;;;190.6;41.0
60719;BME280;46567;51.660;5.824;2023-05-12T15:32:01;128630.0;;;190.6;41.5
60719;BME280;46567;51.660;5.824;2023-05-12T15:37:00;128710.0;;;190.6;40.5
60719;BME280;46567;51.660;5.824;2023-05-12T15:42:00;129120.0;;;190.6;39.5
60719;BME280;46567;51.660;5.824;2023-05-12T15:47:00;129540.0;;;190.6;53.0
60719;BME280;46567;51.660;5.824;2023-05-12T15:52:00;129890.0;;;190.6;62.5
60719;BME280;46567;51.660;5.824;2023-05-12T15:57:00;130100.0;;;190.6;70.0
60719;BME280;46567;51.660;5.824;2023-05-12T16:02:00;130180.0;;;190.6;74.5
60719;BME280;46567;51.660;5.824;2023-05-12T16:07:00;130200.0;;;190.6;78.5
60719;BME280;46567;51.660;5.824;2023-05-12T16:12:00;130200.0;;;190.6;79.5
60719;BME280;46567;51.660;5.824;2023-05-12T16:17:00;130200.0;;;190.6;82.0
60719;BME280;46567;51.660;5.824;2023-05-12T16:22:00;130180.0;;;190.6;82.5
60719;BME280;46567;51.660;5.824;2023-05-12T16:27:00;130170.0;;;190.6;80.0
60719;BME280;46567;51.660;5.824;2023-05-12T16:32:00;130180.0;;;190.6;79.0
60719;BME280;46567;51.660;5.824;2023-05-12T16:37:00;130190.0;;;190.6;81.5
60719;BME280;46567;51.660;5.824;2023-05-12T16:42:00;130210.0;;;190.6;79.0
60719;BME280;46567;51.660;5.824;2023-05-12T16:47:00;130180.0;;;190.6;79.5
60719;BME280;46567;51.660;5.824;2023-05-12T16:52:00;130160.0;;;190.6;79.5
60719;BME280;46567;51.660;5.824;2023-05-12T16:57:00;130160.0;;;190.6;77.5
60719;BME280;46567;51.660;5.824;2023-05-12T17:02:00;130170.0;;;190.6;75.5
60719;BME280;46567;51.660;5.824;2023-05-12T17:07:00;130160.0;;;190.6;76.0
60719;BME280;46567;51.660;5.824;2023-05-12T17:12:00;130170.0;;;190.6;78.0
60719;BME280;46567;51.660;5.824;2023-05-12T17:17:00;130250.0;;;190.6;80.0
60719;BME280;46567;51.660;5.824;2023-05-12T17:22:00;130330.0;;;190.6;81.5
60719;BME280;46567;51.660;5.824;2023-05-12T17:27:00;130390.0;;;190.6;83.0
60719;BME280;46567;51.660;5.824;2023-05-12T17:32:00;130450.0;;;190.6;82.0
60719;BME280;46567;51.660;5.824;2023-05-12T17:37:00;130460.0;;;190.6;83.5
60719;BME280;46567;51.660;5.824;2023-05-12T17:42:00;130410.0;;;190.6;83.5
60719;BME280;46567;51.660;5.824;2023-05-12T17:47:00;130370.0;;;190.6;83.5
60719;BME280;46567;51.660;5.824;2023-05-12T17:52:00;130350.0;;;190.6;83.5
60719;BME280;46567;51.660;5.824;2023-05-12T17:57:00;130330.0;;;190.6;83.0
60719;BME280;46567;51.660;5.824;2023-05-12T18:02:00;130300.0;;;190.6;83.0
60719;BME280;46567;51.660;5.824;2023-05-12T18:07:00;130280.0;;;190.6;84.0
60719;BME280;46567;51.660;5.824;2023-05-12T18:12:00;130300.0;;;190.6;84.5
60719;BME280;46567;51.660;5.824;2023-05-12T18:17:00;130300.0;;;190.6;86.0
60719;BME280;46567;51.660;5.824;2023-05-12T18:22:00;130300.0;;;190.6;87.0
60719;BME280;46567;51.660;5.824;2023-05-12T18:27:00;130340.0;;;190.6;86.5
60719;BME280;46567;51.660;5.824;2023-05-12T18:32:00;130360.0;;;190.6;86.0
60719;BME280;46567;51.660;5.824;2023-05-12T18:37:00;130380.0;;;190.6;87.0
60719;BME280;46567;51.660;5.824;2023-05-12T18:42:00;130420.0;;;190.6;87.5
60719;BME280;46567;51.660;5.824;2023-05-12T18:47:00;130450.0;;;190.6;88.0
60719;BME280;46567;51.660;5.824;2023-05-12T18:52:00;130440.0;;;190.6;88.0
60719;BME280;46567;51.660;5.824;2023-05-12T18:57:00;130450.0;;;190.6;89.0
60719;BME280;46567;51.660;5.824;2023-05-12T19:02:00;130490.0;;;190.6;89.0
60719;BME280;46567;51.660;5.824;2023-05-12T19:07:00;130520.0;;;190.6;89.5
60719;BME280;46567;51.660;5.824;2023-05-12T19:12:00;130540.0;;;190.6;90.0
60719;BME280;46567;51.660;5.824;2023-05-12T19:17:00;130530.0;;;190.6;90.5
60719;BME280;46567;51.660;5.824;2023-05-12T19:22:00;130560.0;;;190.6;90.0
60719;BME280;46567;51.660;5.824;2023-05-12T19:27:00;130570.0;;;190.6;91.0
60719;BME280;46567;51.660;5.824;2023-05-12T19:32:00;130590.0;;;190.6;91.0
60719;BME280;46567;51.660;5.824;2023-05-12T19:37:00;130620.0;;;190.6;92.0
60719;BME280;46567;51.660;5.824;2023-05-12T19:42:00;130630.0;;;190.6;92.0
60719;BME280;46567;51.660;5.824;2023-05-12T19:47:00;130640.0;;;190.6;92.5
60719;BME280;46567;51.660;5.824;2023-05-12T19:52:00;130660.0;;;190.6;92.5
60719;BME280;46567;51.660;5.824;2023-05-12T19:57:00;130700.0;;;190.6;92.5
60719;BME280;46567;51.660;5.824;2023-05-12T20:02:00;130740.0;;;190.6;93.5
60719;BME280;46567;51.660;5.824;2023-05-12T20:07:00;130790.0;;;190.6;95.0
60719;BME280;46567;51.660;5.824;2023-05-12T20:12:00;130810.0;;;190.6;97.0
60719;BME280;46567;51.660;5.824;2023-05-12T20:17:00;130800.0;;;190.6;97.5
60719;BME280;46567;51.660;5.824;2023-05-12T20:22:00;130800.0;;;190.6;97.0
60719;BME280;46567;51.660;5.824;2023-05-12T20:27:00;130790.0;;;190.6;96.5
60719;BME280;46567;51.660;5.824;2023-05-12T20:32:00;130800.0;;;190.6;96.0
60719;BME280;46567;51.660;5.824;2023-05-12T20:37:00;130800.0;;;190.6;95.5
60719;BME280;46567;51.660;5.824;2023-05-12T20:42:00;130790.0;;;190.6;95.0
60719;BME280;46567;51.660;5.824;2023-05-12T20:47:00;130790.0;;;190.6;94.5
60719;BME280;46567;51.660;5.824;2023-05-12T20:52:00;130800.0;;;190.6;94.0
60719;BME280;46567;51.660;5.824;2023-05-12T20:57:00;130780.0;;;190.6;93.0
60719;BME280;46567;51.660;5.824;2023-05-12T21:02:00;130800.0;;;190.6;92.5
60719;BME280;46567;51.660;5.824;2023-05-12T21:07:00;130810.0;;;190.6;92.5
60719;BME280;46567;51.660;5.824;2023-05-12T21:12:00;130810.0;;;190.6;91.5
60719;BME280;46567;51.660;5.824;2023-05-12T21:17:00;130820.0;;;190.6;90.5
60719;BME280;46567;51.660;5.824;2023-05-12T21:22:00;130840.0;;;190.6;89.5
60719;BME280;46567;51.660;5.824;2023-05-12T21:27:00;130850.0;;;190.6;89.0
60719;BME280;46567;51.660;5.824;2023-05-12T21:32:00;130860.0;;;190.6;89.0
60719;BME280;46567;51.660;5.824;2023-05-12T21:42:00;130910.0;;;190.6;88.5
60719;BME280;46567;51.660;5.824;2023-05-12T21:47:00;130920.0;;;190.6;88.5
60719;BME280;46567;51.660;5.824;2023-05-12T21:52:00;130940.0;;;190.6;89.0
60719;BME280;46567;51.660;5.824;2023-05-12T21:57:00;130960.0;;;190.6;89.0
60719;BME280;46567;51.660;5.824;2023-05-12T22:02:00;130970.0;;;190.6;89.0
60719;BME280;46567;51.660;5.824;2023-05-12T22:07:00;130990.0;;;190.6;89.5
60719;BME280;46567;51.660;5.824;2023-05-12T22:12:00;131000.0;;;190.6;89.5
60719;BME280;46567;51.660;5.824;2023-05-12T22:17:00;131010.0;;;190.6;89.5
60719;BME280;46567;51.660;5.824;2023-05-12T22:22:00;131030.0;;;190.6;89.5
60719;BME280;46567;51.660;5.824;2023-05-12T22:27:00;131030.0;;;190.6;90.0
60719;BME280;46567;51.660;5.824;2023-05-12T22:32:00;131040.0;;;190.6;90.0
60719;BME280;46567;51.660;5.824;2023-05-12T22:37:00;131060.0;;;190.6;90.0
60719;BME280;46567;51.660;5.824;2023-05-12T22:42:00;131070.0;;;190.6;90.5
60719;BME280;46567;51.660;5.824;2023-05-12T22:47:00;131070.0;;;190.6;91.0
60719;BME280;46567;51.660;5.824;2023-05-12T22:52:00;131090.0;;;190.6;91.0
60719;BME280;46567;51.660;5.824;2023-05-12T23:02:00;131100.0;;;190.6;90.5
60719;BME280;46567;51.660;5.824;2023-05-12T23:07:00;131090.0;;;190.6;89.0
60719;BME280;46567;51.660;5.824;2023-05-12T23:12:00;131090.0;;;190.6;88.0
60719;BME280;46567;51.660;5.824;2023-05-12T23:17:00;131100.0;;;190.6;86.5
60719;BME280;46567;51.660;5.824;2023-05-12T23:22:00;131080.0;;;190.6;84.5
60719;BME280;46567;51.660;5.824;2023-05-12T23:27:00;131080.0;;;190.6;83.5
60719;BME280;46567;51.660;5.824;2023-05-12T23:32:00;131080.0;;;190.6;82.0
60719;BME280;46567;51.660;5.824;2023-05-12T23:37:00;131060.0;;;190.6;80.0
60719;BME280;46567;51.660;5.824;2023-05-12T23:42:00;131060.0;;;190.6;80.0
60719;BME280;46567;51.660;5.824;2023-05-12T23:47:00;131060.0;;;190.6;80.0
60719;BME280;46567;51.660;5.824;2023-05-12T23:52:00;131060.0;;;190.6;79.5
60719;BME280;46567;51.660;5.824;2023-05-12T23:57:00;131070.0;;;190.6;80.0
